Time;durP1;ratioP1;P1;durP2;ratioP2;P2;SDS_P1;SDS_P2;PMS_P1;PMS_P2;Temp;Humidity;BMP_temperature;BMP_pressure;BME280_temperature;BME280_humidity;BME280_pressure;Samples;Min_cycle;Max_cycle;Signal;HPM_P1;HPM_P2
2021/01/01 00:01:54;;;;;;;6.70;6.00;;;2.20;99.90;;;;;;4948918;28;20225;-71
2021/01/01 00:04:21;;;;;;;11.35;7.25;;;2.20;99.90;;;;;;4949114;28;20225;-71
2021/01/01 00:06:48;;;;;;;8.57;7.05;;;2.20;99.90;;;;;;4949327;28;20232;-71
2021/01/01 00:09:16;;;;;;;7.82;6.95;;;2.20;99.90;;;;;;4949326;28;20283;-72
2021/01/01 00:11:42;;;;;;;10.48;6.35;;;2.10;99.90;;;;;;4949043;28;20232;-71
2021/01/01 00:14:12;;;;;;;9.65;7.15;;;2.20;99.90;;;;;;4949319;28;20228;-70
2021/01/01 00:16:40;;;;;;;7.70;7.00;;;2.20;99.90;;;;;;4949810;28;20212;-71
2021/01/01 00:19:06;;;;;;;9.23;6.85;;;2.20;99.90;;;;;;4949455;28;20231;-71
2021/01/01 00:21:32;;;;;;;6.40;5.78;;;2.20;99.90;;;;;;4948770;28;20779;-70
2021/01/01 00:23:59;;;;;;;7.80;6.88;;;2.10;99.90;;;;;;4949357;28;20225;-71
2021/01/01 00:26:26;;;;;;;7.35;6.15;;;2.20;99.90;;;;;;4948923;28;20825;-71
2021/01/01 00:28:52;;;;;;;6.82;5.80;;;2.10;99.90;;;;;;4949451;28;20208;-71
2021/01/01 00:31:20;;;;;;;6.88;6.15;;;2.10;99.90;;;;;;4948751;28;20230;-72
2021/01/01 00:33:47;;;;;;;8.55;6.25;;;2.10;99.90;;;;;;4948692;28;20279;-71
2021/01/01 00:36:14;;;;;;;6.88;6.22;;;2.00;99.90;;;;;;4949349;28;20212;-70
2021/01/01 00:38:46;;;;;;;6.90;6.10;;;2.00;99.90;;;;;;4948792;28;20588;-71
2021/01/01 00:41:13;;;;;;;8.23;6.13;;;2.00;99.90;;;;;;4948968;28;20314;-71
2021/01/01 00:43:39;;;;;;;6.30;5.35;;;2.00;99.90;;;;;;4948647;28;20224;-71
2021/01/01 00:46:06;;;;;;;7.53;6.15;;;2.00;99.90;;;;;;4949076;28;20219;-70
2021/01/01 00:48:32;;;;;;;7.85;6.57;;;2.00;99.90;;;;;;4948751;28;20208;-69
2021/01/01 00:50:59;;;;;;;7.00;6.40;;;2.00;99.90;;;;;;4948960;28;20204;-70
2021/01/01 00:53:25;;;;;;;7.30;5.93;;;1.90;99.90;;;;;;4947921;28;20239;-70
2021/01/01 00:55:51;;;;;;;6.53;5.90;;;1.90;99.90;;;;;;4949033;28;20675;-72
2021/01/01 00:58:17;;;;;;;6.38;5.65;;;1.90;99.90;;;;;;4948354;28;20212;-72
2021/01/01 01:00:44;;;;;;;8.77;6.45;;;1.90;99.90;;;;;;4965023;28;20208;-71
2021/01/01 01:03:10;;;;;;;7.95;6.18;;;2.00;99.90;;;;;;4971105;28;20232;-72
2021/01/01 01:05:36;;;;;;;6.90;6.20;;;2.00;99.90;;;;;;4971541;28;20216;-71
2021/01/01 01:08:03;;;;;;;7.43;6.72;;;2.00;99.90;;;;;;4971717;28;20207;-72
2021/01/01 01:10:29;;;;;;;7.00;6.30;;;2.00;99.90;;;;;;4970533;28;20212;-70
2021/01/01 01:12:56;;;;;;;7.45;6.20;;;2.00;99.90;;;;;;4970311;28;20212;-70
2021/01/01 01:15:22;;;;;;;6.68;5.82;;;2.00;99.90;;;;;;4969437;28;20210;-72
2021/01/01 01:17:48;;;;;;;6.80;5.50;;;2.00;99.90;;;;;;4970861;28;20631;-72
2021/01/01 01:20:15;;;;;;;10.63;7.90;;;2.10;99.90;;;;;;4971568;28;20204;-71
2021/01/01 01:22:41;;;;;;;9.65;7.75;;;2.00;99.90;;;;;;4970481;28;20651;-71
2021/01/01 01:25:09;;;;;;;8.25;6.65;;;2.00;99.90;;;;;;4970247;28;20227;-70
2021/01/01 01:27:36;;;;;;;8.35;6.85;;;2.00;99.90;;;;;;4970910;28;20243;-71
2021/01/01 01:30:03;;;;;;;9.60;7.05;;;2.00;99.90;;;;;;4970226;28;20215;-72
2021/01/01 01:32:29;;;;;;;7.95;6.47;;;2.00;99.90;;;;;;4970303;28;20196;-71
2021/01/01 01:34:55;;;;;;;7.72;6.63;;;2.00;99.90;;;;;;4970742;28;20739;-71
2021/01/01 01:37:22;;;;;;;7.90;6.93;;;1.90;99.90;;;;;;5006886;22;20635;-93
2021/01/01 01:39:48;;;;;;;9.88;7.00;;;1.90;99.90;;;;;;5033408;28;20186;-94
2021/01/01 01:42:16;;;;;;;7.97;6.20;;;1.90;99.90;;;;;;5037090;28;20223;-92
2021/01/01 01:44:42;;;;;;;9.15;7.43;;;2.00;99.90;;;;;;5021175;28;20229;-95
2021/01/01 01:47:17;;;;;;;7.75;6.25;;;2.00;99.90;;;;;;5019251;28;20305;-92
2021/01/01 01:49:44;;;;;;;10.15;7.85;;;2.00;99.90;;;;;;5019719;28;20206;-91
2021/01/01 01:52:11;;;;;;;9.43;8.00;;;2.00;99.90;;;;;;5019720;28;20202;-92
2021/01/01 01:54:38;;;;;;;9.15;7.30;;;2.00;99.90;;;;;;5019884;28;20232;-91
2021/01/01 01:57:05;;;;;;;9.32;7.65;;;2.00;99.90;;;;;;5019598;28;20230;-92
2021/01/01 01:59:33;;;;;;;10.00;7.80;;;2.00;99.90;;;;;;5022132;28;20221;-92
2021/01/01 02:01:59;;;;;;;8.40;7.40;;;2.00;99.90;;;;;;5022998;28;20230;-92
2021/01/01 02:04:26;;;;;;;10.88;8.45;;;2.10;99.90;;;;;;5021721;28;20211;-91
2021/01/01 02:06:53;;;;;;;9.73;7.82;;;2.10;99.90;;;;;;5020437;28;20290;-92
2021/01/01 02:09:19;;;;;;;10.23;7.63;;;2.10;99.90;;;;;;5018584;28;20211;-91
2021/01/01 02:11:48;;;;;;;11.73;7.97;;;2.10;99.90;;;;;;5020053;28;20203;-92
2021/01/01 02:14:15;;;;;;;10.68;7.80;;;2.20;99.90;;;;;;5016014;28;20297;-91
2021/01/01 02:16:42;;;;;;;9.05;7.95;;;2.20;99.90;;;;;;5019199;28;20252;-91
2021/01/01 02:19:10;;;;;;;9.70;8.27;;;2.20;99.90;;;;;;5018370;28;20206;-91
2021/01/01 02:21:42;;;;;;;9.05;8.00;;;2.20;99.90;;;;;;5018361;28;20767;-90
2021/01/01 02:24:10;;;;;;;9.90;8.02;;;2.30;99.90;;;;;;5018869;28;20225;-91
2021/01/01 02:26:36;;;;;;;8.02;7.22;;;2.20;99.90;;;;;;5030188;28;20217;-92
2021/01/01 02:29:03;;;;;;;8.40;7.40;;;2.30;99.90;;;;;;5038173;28;20228;-91
2021/01/01 02:31:29;;;;;;;9.98;8.10;;;2.30;99.90;;;;;;5021802;28;20198;-91
2021/01/01 02:33:55;;;;;;;9.10;7.40;;;2.30;99.90;;;;;;5020076;28;20202;-93
2021/01/01 02:36:22;;;;;;;11.45;8.40;;;2.30;99.90;;;;;;5018277;28;20210;-91
2021/01/01 02:38:48;;;;;;;10.18;8.05;;;2.30;99.90;;;;;;5016445;28;20240;-91
2021/01/01 02:41:16;;;;;;;10.93;8.25;;;2.40;99.90;;;;;;5015792;28;20245;-91
2021/01/01 02:43:42;;;;;;;9.13;8.15;;;2.40;99.90;;;;;;5015198;28;20252;-90
2021/01/01 02:46:08;;;;;;;11.82;9.50;;;2.40;99.90;;;;;;5015985;28;20208;-91
2021/01/01 02:48:34;;;;;;;9.52;7.75;;;2.40;99.90;;;;;;5016663;28;20711;-91
2021/01/01 02:51:01;;;;;;;9.52;8.25;;;2.40;99.90;;;;;;5015736;28;20301;-91
2021/01/01 02:53:28;;;;;;;10.75;8.52;;;2.30;99.90;;;;;;5024926;28;20213;-91
2021/01/01 02:55:54;;;;;;;10.55;8.18;;;2.30;99.90;;;;;;5038838;28;20226;-93
2021/01/01 02:58:21;;;;;;;11.38;8.73;;;2.30;99.90;;;;;;5038407;28;20253;-91
2021/01/01 03:00:49;;;;;;;12.10;8.73;;;2.30;99.90;;;;;;5027437;28;20198;-91
2021/01/01 03:03:15;;;;;;;10.80;8.27;;;2.30;99.90;;;;;;5016687;28;20213;-91
2021/01/01 03:05:42;;;;;;;10.68;8.57;;;2.30;99.90;;;;;;5015509;28;20206;-91
2021/01/01 03:08:22;;;;;;;13.98;9.73;;;2.40;99.90;;;;;;5015384;28;20710;-91
2021/01/01 03:10:56;;;;;;;12.55;9.60;;;2.40;99.90;;;;;;5014769;28;20210;-90
2021/01/01 03:13:23;;;;;;;10.98;8.88;;;2.40;99.90;;;;;;5014791;28;20289;-91
2021/01/01 03:15:49;;;;;;;10.88;9.77;;;2.30;99.90;;;;;;5015074;28;20234;-90
2021/01/01 03:18:30;;;;;;;12.38;9.38;;;2.30;99.90;;;;;;5015447;28;20222;-91
2021/01/01 03:20:56;;;;;;;13.77;9.88;;;2.30;99.90;;;;;;5036769;28;20206;-91
2021/01/01 03:23:31;;;;;;;12.73;10.27;;;2.30;99.90;;;;;;5029920;28;20201;-91
2021/01/01 03:25:58;;;;;;;13.77;9.88;;;2.30;99.90;;;;;;5016299;28;20321;-91
2021/01/01 03:28:25;;;;;;;14.05;9.85;;;2.30;99.90;;;;;;5014791;28;20230;-91
2021/01/01 03:30:51;;;;;;;13.27;9.63;;;2.30;99.90;;;;;;5014696;28;20302;-93
2021/01/01 03:33:26;;;;;;;12.95;10.38;;;2.30;99.90;;;;;;5014401;28;20668;-90
2021/01/01 03:35:52;;;;;;;11.65;9.05;;;2.20;99.90;;;;;;5014656;28;20217;-91
2021/01/01 03:38:18;;;;;;;13.00;10.40;;;2.20;99.90;;;;;;5013988;28;20244;-90
2021/01/01 03:40:46;;;;;;;13.65;10.85;;;2.20;99.90;;;;;;5014458;28;20587;-91
2021/01/01 03:43:20;;;;;;;11.70;10.13;;;2.20;99.90;;;;;;5013206;28;20261;-93
2021/01/01 03:45:48;;;;;;;13.23;9.68;;;2.20;99.90;;;;;;5013153;28;20206;-93
2021/01/01 03:48:26;;;;;;;;;;;;;;;;;;;;;
2021/01/01 03:50:53;;;;;;;12.75;10.60;;;2.20;99.90;;;;;;5029306;28;20202;-91
2021/01/01 03:53:25;;;;;;;15.00;11.05;;;2.20;99.90;;;;;;5026421;28;20275;-91
2021/01/01 03:55:51;;;;;;;13.40;9.38;;;2.20;99.90;;;;;;5014589;28;20672;-91
2021/01/01 03:58:17;;;;;;;16.13;11.88;;;2.20;99.90;;;;;;5014206;28;20789;-91
2021/01/01 04:00:44;;;;;;;13.05;10.48;;;2.20;99.90;;;;;;5013661;28;20210;-90
2021/01/01 04:03:11;;;;;;;13.90;11.50;;;2.20;99.90;;;;;;5012995;28;20711;-91
2021/01/01 04:05:37;;;;;;;16.65;10.73;;;2.10;99.90;;;;;;5019040;28;20206;-91
2021/01/01 04:08:03;;;;;;;12.45;10.10;;;2.10;99.90;;;;;;5020093;28;20301;-91
2021/01/01 04:10:30;;;;;;;14.75;10.38;;;2.10;99.90;;;;;;5013969;28;20207;-91
2021/01/01 04:12:56;;;;;;;13.63;10.00;;;2.10;99.90;;;;;;5014236;28;20261;-90
2021/01/01 04:15:22;;;;;;;13.70;9.00;;;2.10;99.90;;;;;;5022867;28;20309;-91
2021/01/01 04:17:50;;;;;;;14.27;10.73;;;2.10;99.90;;;;;;5035996;28;20222;-90
2021/01/01 04:20:18;;;;;;;12.63;9.70;;;2.00;99.90;;;;;;5036168;28;20214;-91
2021/01/01 04:22:44;;;;;;;12.40;9.60;;;1.90;99.90;;;;;;5023552;28;20317;-91
2021/01/01 04:25:11;;;;;;;13.68;9.88;;;1.80;99.90;;;;;;5016245;28;20198;-91
2021/01/01 04:27:38;;;;;;;15.32;11.02;;;1.70;99.90;;;;;;5016450;28;20222;-94
2021/01/01 04:30:05;;;;;;;15.52;10.30;;;1.60;99.90;;;;;;5017796;28;20206;-91
2021/01/01 04:32:31;;;;;;;12.52;9.82;;;1.60;99.90;;;;;;5016899;28;20699;-91
2021/01/01 04:34:57;;;;;;;17.42;10.80;;;1.70;99.90;;;;;;5018386;28;20198;-92
2021/01/01 04:37:32;;;;;;;14.85;10.30;;;1.70;99.90;;;;;;5021963;28;20234;-94
2021/01/01 04:39:58;;;;;;;14.90;9.95;;;1.80;99.90;;;;;;5022532;28;20212;-93
2021/01/01 04:42:25;;;;;;;13.05;9.23;;;1.80;99.90;;;;;;5020403;28;20236;-92
2021/01/01 04:44:52;;;;;;;14.98;10.82;;;1.70;99.90;;;;;;5019953;28;20206;-94
2021/01/01 04:47:22;;;;;;;13.85;10.82;;;1.70;99.90;;;;;;5018588;28;20230;-91
2021/01/01 04:49:55;;;;;;;12.10;9.57;;;1.70;99.90;;;;;;5018576;28;20202;-92
2021/01/01 04:52:30;;;;;;;12.43;10.10;;;1.70;99.90;;;;;;5018917;28;20234;-93
2021/01/01 04:54:56;;;;;;;14.43;10.65;;;1.60;99.90;;;;;;5019403;28;20204;-93
2021/01/01 04:57:26;;;;;;;12.82;10.15;;;1.60;99.90;;;;;;5018625;28;20313;-93
2021/01/01 04:59:52;;;;;;;15.48;11.40;;;1.70;99.90;;;;;;5032208;28;20182;-92
2021/01/01 05:02:22;;;;;;;14.07;10.30;;;1.70;99.90;;;;;;5039625;28;20217;-93
2021/01/01 05:04:49;;;;;;;14.93;10.73;;;1.80;99.90;;;;;;5025134;28;20293;-92
2021/01/01 05:07:16;;;;;;;16.08;10.80;;;1.80;99.90;;;;;;5022161;28;20285;-93
2021/01/01 05:09:44;;;;;;;15.10;11.35;;;1.80;99.90;;;;;;5023421;28;20206;-93
2021/01/01 05:12:11;;;;;;;12.88;10.30;;;1.70;99.90;;;;;;5022196;28;20206;-93
2021/01/01 05:14:38;;;;;;;11.82;9.45;;;1.60;99.90;;;;;;5021496;28;20578;-92
2021/01/01 05:17:04;;;;;;;16.45;11.48;;;1.60;99.90;;;;;;5020806;28;20249;-93
2021/01/01 05:19:38;;;;;;;16.88;11.13;;;1.70;99.90;;;;;;5022889;28;20211;-94
2021/01/01 05:22:06;;;;;;;13.80;11.00;;;1.70;99.90;;;;;;5032135;28;20226;-93
2021/01/01 05:24:39;;;;;;;14.60;10.73;;;1.70;99.90;;;;;;5038498;28;20191;-93
2021/01/01 05:27:12;;;;;;;13.95;10.27;;;1.70;99.90;;;;;;5031867;28;20252;-93
2021/01/01 05:29:51;;;;;;;15.88;11.10;;;1.80;99.90;;;;;;5035528;28;20197;-94
2021/01/01 05:32:22;;;;;;;16.85;11.15;;;1.80;99.90;;;;;;5037926;28;20202;-93
2021/01/01 05:34:48;;;;;;;16.25;10.57;;;1.80;99.90;;;;;;5026485;28;20233;-93
2021/01/01 05:37:26;;;;;;;13.13;9.88;;;1.80;99.90;;;;;;5023509;28;20241;-93
2021/01/01 05:40:00;;;;;;;13.20;10.48;;;1.70;99.90;;;;;;5024026;28;20249;-94
2021/01/01 05:42:27;;;;;;;15.25;10.88;;;1.70;99.90;;;;;;5021748;28;20246;-92
2021/01/01 05:44:53;;;;;;;16.00;11.75;;;1.70;99.90;;;;;;5022779;28;20198;-93
2021/01/01 05:47:19;;;;;;;15.77;11.05;;;1.80;99.90;;;;;;5021717;28;20233;-94
2021/01/01 05:49:46;;;;;;;14.85;11.05;;;1.90;99.90;;;;;;5022282;28;20217;-93
2021/01/01 05:52:15;;;;;;;12.65;10.38;;;1.90;99.90;;;;;;5021562;28;20229;-93
2021/01/01 05:54:42;;;;;;;15.95;10.73;;;1.90;99.90;;;;;;5022928;28;20401;-94
2021/01/01 05:57:10;;;;;;;14.43;11.00;;;2.00;99.90;;;;;;5021273;28;20229;-93
2021/01/01 05:59:39;;;;;;;16.75;11.52;;;1.90;99.90;;;;;;5020664;28;20209;-94
2021/01/01 06:02:07;;;;;;;14.75;10.25;;;1.90;99.90;;;;;;5025451;28;20272;-93
2021/01/01 06:04:34;;;;;;;14.05;11.20;;;1.90;99.90;;;;;;5027707;28;20206;-95
2021/01/01 06:07:02;;;;;;;14.30;10.90;;;1.90;99.90;;;;;;5029483;28;20206;-93
2021/01/01 06:09:30;;;;;;;13.88;11.43;;;1.90;99.90;;;;;;5029017;28;20206;-94
2021/01/01 06:12:01;;;;;;;17.00;11.70;;;2.00;99.90;;;;;;5028342;28;20213;-94
2021/01/01 06:14:42;;;;;;;16.40;11.27;;;2.10;99.90;;;;;;5037986;28;20182;-94
2021/01/01 06:17:20;;;;;;;17.90;11.88;;;2.10;99.90;;;;;;5022336;28;20249;-94
2021/01/01 06:19:57;;;;;;;13.30;10.32;;;2.10;99.90;;;;;;5025852;28;20205;-94
2021/01/01 06:22:25;;;;;;;11.98;9.38;;;2.10;99.90;;;;;;5027022;28;20345;-93
2021/01/01 06:24:53;;;;;;;13.85;9.05;;;2.00;99.90;;;;;;5028829;28;20198;-94
2021/01/01 06:27:21;;;;;;;10.13;8.00;;;2.00;99.90;;;;;;5026084;28;20249;-94
2021/01/01 06:29:50;;;;;;;10.55;8.23;;;2.00;99.90;;;;;;5021345;28;20229;-95
2021/01/01 06:32:19;;;;;;;8.68;6.90;;;2.00;99.90;;;;;;5023919;28;20226;-94
2021/01/01 06:34:46;;;;;;;9.30;7.55;;;2.00;99.90;;;;;;5029401;28;20214;-94
2021/01/01 06:37:36;;;;;;;8.50;6.72;;;2.00;99.90;;;;;;5029387;28;20242;-94
2021/01/01 06:40:04;;;;;;;10.35;7.40;;;1.90;99.90;;;;;;5029424;28;20214;-94
2021/01/01 06:42:51;;;;;;;8.55;6.95;;;2.00;99.90;;;;;;5022645;28;20248;-94
2021/01/01 06:45:39;;;;;;;7.93;7.05;;;1.90;99.90;;;;;;5019368;28;20202;-94
2021/01/01 06:48:07;;;;;;;9.07;6.75;;;1.90;99.90;;;;;;5019306;28;20226;-94
2021/01/01 06:50:35;;;;;;;7.65;6.80;;;1.90;99.90;;;;;;5020046;28;20210;-94
2021/01/01 06:53:03;;;;;;;7.22;6.35;;;2.00;99.90;;;;;;5018675;28;20202;-93
2021/01/01 06:55:31;;;;;;;9.40;6.72;;;2.00;99.90;;;;;;5020736;28;20214;-93
2021/01/01 06:57:58;;;;;;;9.35;7.43;;;1.90;99.90;;;;;;5037723;28;20206;-95
2021/01/01 07:01:04;;;;;;;9.07;7.43;;;1.90;99.90;;;;;;5037879;28;20302;-95
2021/01/01 07:03:33;;;;;;;10.45;8.00;;;1.90;99.90;;;;;;5024264;28;20222;-93
2021/01/01 07:06:38;;;;;;;10.85;7.63;;;1.90;99.90;;;;;;5019928;28;20199;-94
2021/01/01 07:09:14;;;;;;;8.48;7.40;;;1.90;99.90;;;;;;5030505;28;20221;-94
2021/01/01 07:11:45;;;;;;;8.15;7.20;;;1.90;99.90;;;;;;5023619;28;20699;-94
2021/01/01 07:14:15;;;;;;;9.02;7.15;;;1.90;99.90;;;;;;5019285;28;20683;-94
2021/01/01 07:16:43;;;;;;;9.73;7.40;;;1.90;99.90;;;;;;5019014;28;20656;-93
2021/01/01 07:19:10;;;;;;;9.60;7.82;;;1.90;99.90;;;;;;5017709;28;20214;-94
2021/01/01 07:21:38;;;;;;;7.78;6.05;;;1.90;99.90;;;;;;5017990;28;20230;-93
2021/01/01 07:24:05;;;;;;;8.20;6.93;;;1.90;99.90;;;;;;5034050;28;20203;-94
2021/01/01 07:26:31;;;;;;;9.35;7.05;;;1.90;99.90;;;;;;5022880;28;20207;-95
2021/01/01 07:29:00;;;;;;;11.18;8.45;;;1.90;99.90;;;;;;5024542;28;20230;-94
2021/01/01 07:31:27;;;;;;;8.40;6.43;;;2.00;99.90;;;;;;5025369;28;20210;-95
2021/01/01 07:33:54;;;;;;;9.68;7.68;;;2.00;99.90;;;;;;5032143;28;20189;-94
2021/01/01 07:36:21;;;;;;;10.10;8.45;;;2.00;99.90;;;;;;5037542;28;20209;-95
2021/01/01 07:41:18;;;;;;;9.50;7.80;;;1.90;99.90;;;;;;4987647;28;20219;-68
2021/01/01 07:43:44;;;;;;;10.57;7.30;;;1.80;99.90;;;;;;4989688;28;20297;-70
2021/01/01 07:46:11;;;;;;;8.50;7.20;;;1.80;99.90;;;;;;4990364;28;20211;-70
2021/01/01 07:48:38;;;;;;;8.00;7.03;;;1.80;99.90;;;;;;4990200;28;20203;-68
2021/01/01 07:51:06;;;;;;;10.50;8.15;;;1.80;99.90;;;;;;4990271;28;20255;-70
2021/01/01 07:53:34;;;;;;;10.85;7.55;;;1.80;99.90;;;;;;4989724;28;20254;-70
2021/01/01 07:56:02;;;;;;;9.82;7.13;;;1.80;99.90;;;;;;4990185;28;20670;-70
2021/01/01 07:58:30;;;;;;;7.90;7.10;;;1.80;99.90;;;;;;4989968;28;20221;-70
2021/01/01 08:01:06;;;;;;;10.30;7.28;;;1.80;99.90;;;;;;4989982;28;20203;-70
2021/01/01 08:03:33;;;;;;;8.43;6.03;;;1.80;99.90;;;;;;4989217;28;20222;-70
2021/01/01 08:06:01;;;;;;;9.15;6.95;;;1.90;99.90;;;;;;4990123;28;20289;-70
2021/01/01 08:08:27;;;;;;;8.20;6.20;;;1.90;99.90;;;;;;4989919;28;20203;-70
2021/01/01 08:10:55;;;;;;;7.30;6.00;;;1.90;99.90;;;;;;4989135;28;20206;-70
2021/01/01 08:13:23;;;;;;;6.13;5.15;;;1.90;99.90;;;;;;4989204;28;20219;-70
2021/01/01 08:15:50;;;;;;;6.55;5.32;;;1.90;99.90;;;;;;4989865;28;20267;-70
2021/01/01 08:18:19;;;;;;;5.60;4.63;;;1.90;99.90;;;;;;4989734;28;20203;-70
2021/01/01 08:20:47;;;;;;;6.85;5.43;;;1.90;99.90;;;;;;4989782;28;20568;-69
2021/01/01 08:23:15;;;;;;;6.57;4.93;;;1.90;99.90;;;;;;4988522;28;20230;-71
2021/01/01 08:25:41;;;;;;;6.65;5.70;;;2.00;99.90;;;;;;4989883;28;20235;-72
2021/01/01 08:28:09;;;;;;;6.15;5.00;;;2.00;99.90;;;;;;4990011;28;20203;-71
2021/01/01 08:30:37;;;;;;;5.72;4.53;;;2.00;99.90;;;;;;4989762;28;20207;-71
2021/01/01 08:33:05;;;;;;;7.18;4.95;;;2.00;99.90;;;;;;4989255;28;20671;-71
2021/01/01 08:35:31;;;;;;;6.22;4.90;;;2.10;99.90;;;;;;4989817;28;20281;-71
2021/01/01 08:37:57;;;;;;;5.85;4.10;;;2.10;99.90;;;;;;4989920;28;20237;-72
2021/01/01 08:40:24;;;;;;;5.13;4.35;;;2.10;99.90;;;;;;4989474;28;20584;-71
2021/01/01 08:42:53;;;;;;;7.35;5.22;;;2.20;99.90;;;;;;4988925;28;20289;-71
2021/01/01 08:45:21;;;;;;;5.50;4.78;;;2.20;99.90;;;;;;4989776;28;20234;-69
2021/01/01 08:47:49;;;;;;;7.47;5.57;;;2.20;99.90;;;;;;4990652;28;20203;-70
2021/01/01 08:50:25;;;;;;;6.10;5.28;;;2.30;99.90;;;;;;4989720;28;20217;-70
2021/01/01 08:52:59;;;;;;;7.15;5.72;;;2.30;99.90;;;;;;4989049;28;20202;-70
2021/01/01 08:55:26;;;;;;;5.53;4.95;;;2.30;99.90;;;;;;4989544;28;20615;-71
2021/01/01 08:58:05;;;;;;;5.72;4.43;;;2.40;99.90;;;;;;4989783;28;20214;-71
2021/01/01 09:00:32;;;;;;;6.40;4.40;;;2.40;99.90;;;;;;4989601;28;20293;-71
2021/01/01 09:02:59;;;;;;;6.93;4.63;;;2.40;99.90;;;;;;4989135;28;20710;-71
2021/01/01 09:05:27;;;;;;;6.43;4.60;;;2.40;99.90;;;;;;4989415;28;20986;-71
2021/01/01 09:08:08;;;;;;;9.10;4.97;;;2.40;99.90;;;;;;4989763;28;20208;-70
2021/01/01 09:10:35;;;;;;;4.47;3.80;;;2.40;99.90;;;;;;4989389;28;20269;-71
2021/01/01 09:13:16;;;;;;;5.10;4.05;;;2.50;99.90;;;;;;4988955;28;20604;-71
2021/01/01 09:15:43;;;;;;;3.40;3.10;;;2.50;99.90;;;;;;4989309;28;20203;-71
2021/01/01 09:18:10;;;;;;;3.88;3.42;;;2.50;99.90;;;;;;4989447;28;20930;-71
2021/01/01 09:20:40;;;;;;;4.13;3.45;;;2.60;99.90;;;;;;4989536;28;20623;-71
2021/01/01 09:23:07;;;;;;;3.35;2.95;;;2.60;99.90;;;;;;5001014;28;20254;-71
2021/01/01 09:25:34;;;;;;;4.00;3.17;;;2.70;99.90;;;;;;5010634;28;20198;-71
2021/01/01 09:28:00;;;;;;;4.82;3.35;;;2.90;99.90;;;;;;5012245;28;20218;-69
2021/01/01 09:30:28;;;;;;;4.05;3.50;;;3.00;99.90;;;;;;5012168;28;20214;-70
2021/01/01 09:32:56;;;;;;;4.10;3.70;;;3.20;99.90;;;;;;5011876;28;20198;-70
2021/01/01 09:35:24;;;;;;;3.88;3.42;;;3.30;99.90;;;;;;5012244;28;20301;-69
2021/01/01 09:37:52;;;;;;;3.10;2.63;;;3.30;99.90;;;;;;5012358;28;20326;-69
2021/01/01 09:40:19;;;;;;;3.92;3.20;;;3.30;99.90;;;;;;5011638;28;20210;-71
2021/01/01 09:42:46;;;;;;;5.00;3.47;;;3.20;99.90;;;;;;5008230;28;20361;-69
2021/01/01 09:45:13;;;;;;;6.05;3.38;;;3.20;99.90;;;;;;4987705;28;20219;-70
2021/01/01 09:47:39;;;;;;;3.90;3.25;;;3.10;99.90;;;;;;4990703;28;20218;-71
2021/01/01 09:50:08;;;;;;;4.30;3.40;;;3.20;99.90;;;;;;4990450;28;20886;-69
2021/01/01 09:52:34;;;;;;;4.32;3.85;;;3.30;99.90;;;;;;4989640;28;20211;-71
2021/01/01 09:55:00;;;;;;;3.22;2.85;;;3.20;99.90;;;;;;5002694;28;20375;-70
2021/01/01 09:57:27;;;;;;;3.33;3.00;;;3.20;99.90;;;;;;5010287;28;20221;-72
2021/01/01 09:59:53;;;;;;;3.35;3.05;;;3.20;99.90;;;;;;5009723;28;20256;-73
2021/01/01 10:02:19;;;;;;;4.63;3.25;;;3.20;99.90;;;;;;5009031;28;20320;-73
2021/01/01 10:04:45;;;;;;;3.42;2.95;;;3.30;99.90;;;;;;5009635;28;20230;-73
2021/01/01 10:07:12;;;;;;;4.00;3.22;;;3.30;99.90;;;;;;5009059;28;20203;-71
2021/01/01 10:09:39;;;;;;;3.88;3.10;;;3.20;99.90;;;;;;5009366;28;20256;-72
2021/01/01 10:12:06;;;;;;;3.08;2.78;;;3.20;99.90;;;;;;5009462;28;20202;-73
2021/01/01 10:14:32;;;;;;;4.22;3.33;;;3.20;99.90;;;;;;5009376;28;20222;-72
2021/01/01 10:16:59;;;;;;;2.72;2.40;;;3.20;99.90;;;;;;5009076;28;20749;-72
2021/01/01 10:19:25;;;;;;;3.05;2.75;;;3.30;99.90;;;;;;5009453;28;20549;-72
2021/01/01 10:21:51;;;;;;;4.25;3.30;;;3.30;99.90;;;;;;5008691;28;20296;-72
2021/01/01 10:24:18;;;;;;;3.30;3.00;;;3.40;99.90;;;;;;5008837;28;20233;-72
2021/01/01 10:26:49;;;;;;;5.10;3.45;;;3.40;99.90;;;;;;5009877;28;20198;-71
2021/01/01 10:29:15;;;;;;;3.90;3.35;;;3.50;99.90;;;;;;5008833;28;20210;-72
2021/01/01 10:31:41;;;;;;;3.75;3.10;;;3.50;99.90;;;;;;5004115;28;20218;-71
2021/01/01 10:34:08;;;;;;;3.85;2.83;;;3.60;99.90;;;;;;4987576;28;20689;-72
2021/01/01 10:36:34;;;;;;;4.40;2.47;;;3.70;99.90;;;;;;4989298;28;20214;-72
2021/01/01 10:39:00;;;;;;;3.30;2.92;;;3.80;99.90;;;;;;4989990;28;20629;-71
2021/01/01 10:41:27;;;;;;;4.03;3.25;;;3.90;99.90;;;;;;4989231;28;20268;-70
2021/01/01 10:43:53;;;;;;;2.85;2.50;;;4.00;99.90;;;;;;4988201;28;20714;-72
2021/01/01 10:46:19;;;;;;;3.45;2.90;;;3.90;99.90;;;;;;4988782;28;20207;-71
2021/01/01 10:48:46;;;;;;;2.80;2.58;;;3.80;99.90;;;;;;4989455;28;20211;-71
2021/01/01 10:51:19;;;;;;;3.80;3.30;;;3.80;99.90;;;;;;4988561;28;20869;-70
2021/01/01 10:53:45;;;;;;;4.13;3.00;;;3.70;99.90;;;;;;4988604;28;20223;-71
2021/01/01 10:56:12;;;;;;;4.10;3.13;;;3.70;99.90;;;;;;4989236;28;20211;-70
2021/01/01 10:58:39;;;;;;;3.80;3.35;;;3.60;99.90;;;;;;4988305;28;20628;-71
2021/01/01 11:01:05;;;;;;;3.55;3.00;;;3.60;99.90;;;;;;4981935;28;20210;-72
2021/01/01 11:03:31;;;;;;;5.90;5.20;;;3.70;99.90;;;;;;4984425;28;20230;-72
2021/01/01 11:05:57;;;;;;;7.13;6.45;;;3.70;99.90;;;;;;4985583;28;20206;-71
2021/01/01 11:08:23;;;;;;;6.10;5.40;;;3.80;99.90;;;;;;4986004;28;20717;-72
2021/01/01 11:10:50;;;;;;;3.80;3.42;;;3.80;99.90;;;;;;4986181;28;20210;-71
2021/01/01 11:13:16;;;;;;;3.70;3.40;;;3.90;99.90;;;;;;4984289;28;20223;-72
2021/01/01 12:22:02;;;;;;;4.30;3.90;;;4.00;99.90;;;;;;4984588;28;20354;-70
2021/01/01 12:27:21;;;;;;;3.90;3.50;;;3.90;99.90;;;;;;4963409;28;20244;-69
2021/01/01 12:29:50;;;;;;;6.32;3.78;;;4.00;99.90;;;;;;4984984;28;20207;-70
2021/01/01 12:32:18;;;;;;;6.20;4.20;;;4.00;99.90;;;;;;4984587;28;20199;-70
2021/01/01 12:34:45;;;;;;;4.13;3.47;;;4.00;99.90;;;;;;4985286;28;20219;-71
2021/01/01 12:37:12;;;;;;;4.05;3.65;;;4.00;99.90;;;;;;4985599;28;20666;-70
2021/01/01 12:39:39;;;;;;;4.70;3.60;;;4.00;99.90;;;;;;4981954;28;20215;-71
2021/01/01 12:42:05;;;;;;;3.80;3.40;;;3.90;99.90;;;;;;4983874;28;20227;-71
2021/01/01 12:44:32;;;;;;;3.95;3.28;;;3.90;99.90;;;;;;4985588;28;20234;-71
2021/01/01 12:46:59;;;;;;;4.20;3.80;;;3.90;99.90;;;;;;4982492;28;20213;-69
2021/01/01 12:49:26;;;;;;;3.50;3.20;;;4.00;99.90;;;;;;4984776;28;20207;-71
2021/01/01 12:51:52;;;;;;;3.90;3.42;;;4.10;99.90;;;;;;4983751;28;20237;-71
2021/01/01 12:54:19;;;;;;;4.90;3.83;;;4.00;99.90;;;;;;4984828;28;20231;-71
2021/01/01 12:56:45;;;;;;;4.15;3.40;;;4.00;99.90;;;;;;4984751;28;20230;-71
2021/01/01 12:59:15;;;;;;;3.47;3.17;;;3.90;99.90;;;;;;4987425;28;20207;-70
2021/01/01 13:01:45;;;;;;;4.20;3.35;;;4.00;99.90;;;;;;4988672;28;20210;-71
2021/01/01 13:04:11;;;;;;;3.33;3.03;;;4.00;99.90;;;;;;4985825;28;20595;-69
2021/01/01 13:06:38;;;;;;;3.60;3.25;;;4.00;99.90;;;;;;4988955;28;20206;-70
2021/01/01 13:09:05;;;;;;;3.67;3.38;;;3.90;99.90;;;;;;4988672;28;20206;-69
2021/01/01 13:11:35;;;;;;;4.30;3.90;;;3.90;99.90;;;;;;4988114;28;20199;-70
2021/01/01 13:14:01;;;;;;;3.80;3.40;;;3.90;99.90;;;;;;4988586;28;20235;-69
2021/01/01 13:16:28;;;;;;;4.90;3.60;;;3.90;99.90;;;;;;4988929;28;20203;-72
2021/01/01 13:18:55;;;;;;;4.43;3.25;;;3.90;99.90;;;;;;4989578;28;20211;-70
2021/01/01 13:21:26;;;;;;;4.07;3.63;;;3.90;99.90;;;;;;4990469;28;20302;-71
2021/01/01 13:23:53;;;;;;;4.63;4.15;;;3.90;99.90;;;;;;4988673;28;20313;-71
2021/01/01 13:26:20;;;;;;;4.55;3.42;;;4.10;99.90;;;;;;4987308;28;20273;-71
2021/01/01 13:28:51;;;;;;;3.83;3.42;;;4.20;99.90;;;;;;4988463;28;20724;-69
2021/01/01 13:31:18;;;;;;;3.25;2.95;;;4.20;99.90;;;;;;4987450;28;20215;-69
2021/01/01 13:33:48;;;;;;;3.67;3.10;;;4.20;99.90;;;;;;4987926;28;20309;-72
2021/01/01 13:36:16;;;;;;;3.72;3.10;;;4.20;99.90;;;;;;4987472;28;20233;-70
2021/01/01 13:38:47;;;;;;;4.20;3.80;;;4.30;99.90;;;;;;4989357;28;20206;-69
2021/01/01 13:41:14;;;;;;;4.38;3.70;;;4.30;99.90;;;;;;4987199;28;20237;-73
2021/01/01 13:43:42;;;;;;;4.38;3.95;;;4.30;99.90;;;;;;4984868;28;20254;-68
2021/01/01 13:46:18;;;;;;;4.63;3.65;;;4.30;99.90;;;;;;4984701;28;20588;-72
2021/01/01 13:48:53;;;;;;;4.07;3.53;;;4.40;99.90;;;;;;4987625;28;20219;-72
2021/01/01 13:51:33;;;;;;;3.30;3.00;;;4.40;99.90;;;;;;4987442;28;20655;-72
2021/01/01 13:54:03;;;;;;;4.15;3.55;;;4.60;99.90;;;;;;4987192;28;20249;-71
2021/01/01 13:56:30;;;;;;;3.88;3.33;;;4.80;99.90;;;;;;4968103;28;20295;-70
2021/01/01 13:59:07;;;;;;;4.15;3.70;;;5.10;99.90;;;;;;4968899;28;20346;-71
2021/01/01 14:01:39;;;;;;;4.03;3.63;;;5.30;99.90;;;;;;4980244;28;20301;-70
2021/01/01 14:04:13;;;;;;;3.45;3.15;;;5.50;99.90;;;;;;4980656;28;20310;-70
2021/01/01 14:06:45;;;;;;;4.18;3.78;;;5.60;99.90;;;;;;4988310;28;20239;-70
2021/01/01 14:09:12;;;;;;;3.85;3.35;;;5.50;99.90;;;;;;4987253;28;20257;-69
2021/01/01 14:11:39;;;;;;;3.90;3.55;;;5.40;99.90;;;;;;4988768;28;20207;-71